createdAt,value
2022-11-14T00:00:27.665Z,71.30
2022-11-14T00:02:53.977Z,71.23
2022-11-14T00:05:23.423Z,70.80
2022-11-14T00:07:48.265Z,71.59
2022-11-14T00:10:14.440Z,71.11
2022-11-14T00:12:39.473Z,70.90
2022-11-14T00:15:08.973Z,71.10
2022-11-14T00:17:34.735Z,71.06
2022-11-14T00:20:00.160Z,71.23
2022-11-14T00:22:30.095Z,71.93
2022-11-14T00:24:56.519Z,71.25
2022-11-14T00:27:21.739Z,71.64
2022-11-14T00:29:47.368Z,71.39
2022-11-14T00:32:13.694Z,71.32
2022-11-14T00:34:38.962Z,71.30
2022-11-14T00:37:07.236Z,71.44
2022-11-14T00:39:35.780Z,71.55
2022-11-14T00:42:00.989Z,71.03
2022-11-14T00:44:28.248Z,71.26
2022-11-14T00:46:54.240Z,70.83
2022-11-14T00:49:19.525Z,71.44
2022-11-14T00:51:44.683Z,71.45
2022-11-14T00:54:10.774Z,70.86
2022-11-14T00:56:38.742Z,71.30
2022-11-14T00:59:03.862Z,71.40
2022-11-14T01:01:30.281Z,71.18
2022-11-14T01:03:55.924Z,71.56
2022-11-14T01:06:23.285Z,71.62
2022-11-14T01:08:49.505Z,71.18
2022-11-14T01:11:19.842Z,70.58
2022-11-14T01:13:48.189Z,71.12
2022-11-14T01:16:15.139Z,70.64
2022-11-14T01:18:42.476Z,70.34
2022-11-14T01:21:11.138Z,70.54
2022-11-14T01:23:38.187Z,70.65
2022-11-14T01:26:06.886Z,70.60
2022-11-14T01:28:32.334Z,71.28
2022-11-14T01:31:15.224Z,70.88
2022-11-14T01:33:40.867Z,70.49
2022-11-14T01:36:11.844Z,71.07
2022-11-14T01:38:37.311Z,70.88
2022-11-14T01:41:03.957Z,70.38
2022-11-14T01:43:34.592Z,71.00
2022-11-14T01:46:07.409Z,70.81
2022-11-14T01:48:46.288Z,70.77
2022-11-14T01:51:27.087Z,70.54
2022-11-14T01:53:58.557Z,70.30
2022-11-14T01:56:32.801Z,70.32
2022-11-14T01:59:09.203Z,70.52
2022-11-14T02:01:44.205Z,70.30
2022-11-14T02:04:15.098Z,70.48
2022-11-14T02:06:44.880Z,70.29
2022-11-14T02:09:11.780Z,71.05
2022-11-14T02:11:42.994Z,71.54
2022-11-14T02:14:12.443Z,70.88
2022-11-14T02:17:00.833Z,71.23
2022-11-14T02:19:29.483Z,71.08
2022-11-14T02:21:58.394Z,71.22
2022-11-14T02:24:23.559Z,71.50
2022-11-14T02:26:48.942Z,71.59
2022-11-14T02:29:15.005Z,70.63
2022-11-14T02:31:42.597Z,70.78
2022-11-14T02:34:09.034Z,71.69
2022-11-14T02:36:35.204Z,71.17
2022-11-14T02:39:03.645Z,71.40
2022-11-14T02:41:29.213Z,72.19
2022-11-14T02:43:55.229Z,71.51
2022-11-14T02:46:20.816Z,71.71
2022-11-14T02:48:46.081Z,71.86
2022-11-14T02:51:11.818Z,72.34
2022-11-14T02:53:37.706Z,71.62
2022-11-14T02:56:06.651Z,71.88
2022-11-14T02:58:33.163Z,71.52
2022-11-14T03:01:19.754Z,71.03
2022-11-14T03:03:44.450Z,71.36
2022-11-14T03:06:10.457Z,71.74
2022-11-14T03:08:36.499Z,71.66
2022-11-14T03:11:12.131Z,71.84
2022-11-14T03:13:37.543Z,71.47
2022-11-14T03:16:10.341Z,71.10
2022-11-14T03:18:39.484Z,71.52
2022-11-14T03:21:11.232Z,70.77
2022-11-14T03:23:36.499Z,71.00
2022-11-14T03:26:04.000Z,71.01
2022-11-14T03:28:34.676Z,70.95
2022-11-14T03:31:00.347Z,71.48
2022-11-14T03:33:28.390Z,72.07
2022-11-14T03:35:55.977Z,72.19
2022-11-14T03:38:23.201Z,71.58
2022-11-14T03:40:48.724Z,72.21
2022-11-14T03:43:14.736Z,72.33
2022-11-14T03:45:42.698Z,72.25
2022-11-14T03:48:09.809Z,71.85
2022-11-14T03:50:36.121Z,72.26
2022-11-14T03:53:01.216Z,71.62
2022-11-14T03:55:27.762Z,71.87
2022-11-14T03:57:54.034Z,72.02
2022-11-14T04:00:20.468Z,71.75
2022-11-14T04:02:48.396Z,71.85
2022-11-14T04:05:14.441Z,71.57
2022-11-14T04:07:39.943Z,71.52
2022-11-14T04:10:06.353Z,71.28
2022-11-14T04:12:32.804Z,72.12
2022-11-14T04:14:57.746Z,71.60
2022-11-14T04:17:22.930Z,72.31
2022-11-14T04:19:51.800Z,72.41
2022-11-14T04:22:16.707Z,71.77
2022-11-14T04:24:42.107Z,72.30
2022-11-14T04:27:09.591Z,72.44
2022-11-14T04:29:34.891Z,71.40
2022-11-14T04:32:03.325Z,72.26
2022-11-14T04:34:29.171Z,71.91
2022-11-14T04:36:57.380Z,71.57
2022-11-14T04:39:22.677Z,71.12
2022-11-14T04:41:48.710Z,71.28
2022-11-14T04:44:14.283Z,70.41
2022-11-14T04:46:39.908Z,70.79
2022-11-14T04:49:06.547Z,70.83
2022-11-14T04:51:31.502Z,70.35
2022-11-14T04:53:59.865Z,70.79
2022-11-14T04:56:26.038Z,70.42
2022-11-14T04:58:51.109Z,70.76
2022-11-14T05:01:17.893Z,70.65
2022-11-14T05:03:44.169Z,71.06
2022-11-14T05:06:10.462Z,71.01
2022-11-14T05:08:35.977Z,70.59
2022-11-14T05:11:06.635Z,70.83
2022-11-14T05:13:32.180Z,71.58
2022-11-14T05:15:57.337Z,71.48
2022-11-14T05:18:23.767Z,71.29
2022-11-14T05:20:49.170Z,71.43
2022-11-14T05:23:24.621Z,72.00
2022-11-14T05:25:53.573Z,71.21
2022-11-14T05:28:25.783Z,71.44
2022-11-14T05:30:51.766Z,72.20
2022-11-14T05:33:17.255Z,72.42
2022-11-14T05:35:42.347Z,71.82
2022-11-14T05:38:09.687Z,72.49
2022-11-14T05:40:34.986Z,72.62
2022-11-14T05:43:00.997Z,71.90
2022-11-14T05:45:34.084Z,71.81
2022-11-14T05:47:59.495Z,72.44
2022-11-14T05:50:24.718Z,71.40
2022-11-14T05:52:50.815Z,72.06
2022-11-14T05:55:20.511Z,70.86
2022-11-14T05:57:50.637Z,71.92
2022-11-14T06:00:17.836Z,71.06
2022-11-14T06:02:46.700Z,72.29
2022-11-14T06:05:13.309Z,71.53
2022-11-14T06:07:39.389Z,72.60
2022-11-14T06:10:06.311Z,72.07
2022-11-14T06:12:32.090Z,72.58
2022-11-14T06:14:57.877Z,71.76
2022-11-14T06:17:22.975Z,71.75
2022-11-14T06:19:52.033Z,71.55
2022-11-14T06:22:17.323Z,71.98
2022-11-14T06:24:42.670Z,72.06
2022-11-14T06:27:09.567Z,72.43
2022-11-14T06:29:35.768Z,71.98
2022-11-14T06:32:01.212Z,71.49
2022-11-14T06:34:28.717Z,72.37
2022-11-14T06:36:56.497Z,71.88
2022-11-14T06:39:21.779Z,72.65
2022-11-14T06:41:47.682Z,72.41
2022-11-14T06:44:15.270Z,72.83
2022-11-14T06:46:40.467Z,72.58
2022-11-14T06:49:07.242Z,71.72
2022-11-14T06:51:32.771Z,72.28
2022-11-14T06:54:03.391Z,71.99
2022-11-14T06:56:29.490Z,71.51
2022-11-14T06:58:54.510Z,72.74
2022-11-14T07:01:22.943Z,72.06
2022-11-14T07:03:49.996Z,72.95
2022-11-14T07:06:19.590Z,71.74
2022-11-14T07:08:45.531Z,72.22
2022-11-14T07:11:23.320Z,71.84
2022-11-14T07:13:48.489Z,72.30
2022-11-14T07:16:14.561Z,72.15
2022-11-14T07:18:39.786Z,71.26
2022-11-14T07:21:09.736Z,71.85
2022-11-14T07:23:38.713Z,71.51
2022-11-14T07:26:06.863Z,70.82
2022-11-14T07:28:34.941Z,71.09
2022-11-14T07:31:01.092Z,70.59
2022-11-14T07:33:27.595Z,71.45
2022-11-14T07:35:55.485Z,70.77
2022-11-14T07:38:21.815Z,70.63
2022-11-14T07:40:59.367Z,70.54
2022-11-14T07:43:29.497Z,70.58
2022-11-14T07:46:05.108Z,70.75
2022-11-14T07:48:32.080Z,69.89
2022-11-14T07:51:05.916Z,70.29
2022-11-14T07:53:33.581Z,70.13
2022-11-14T07:55:59.116Z,69.73
2022-11-14T07:58:25.066Z,70.05
2022-11-14T08:00:51.747Z,69.82
2022-11-14T08:03:20.196Z,69.83
2022-11-14T08:05:46.495Z,69.14
2022-11-14T08:08:12.747Z,69.42
2022-11-14T08:10:37.998Z,68.65
2022-11-14T08:15:53.037Z,68.29
2022-11-14T08:18:21.358Z,68.54
2022-11-14T08:20:46.494Z,68.74
2022-11-14T08:23:14.711Z,68.42
2022-11-14T08:25:40.355Z,68.42
2022-11-14T08:28:08.172Z,68.77
2022-11-14T08:30:35.700Z,68.51
2022-11-14T08:33:07.010Z,68.53
2022-11-14T08:35:38.041Z,68.52
2022-11-14T08:38:06.324Z,68.47
2022-11-14T08:40:31.862Z,68.85
2022-11-14T08:43:04.152Z,68.37
2022-11-14T08:45:29.498Z,68.38
2022-11-14T08:47:55.891Z,68.04
2022-11-14T08:50:22.818Z,67.95
2022-11-14T08:52:54.179Z,67.84
2022-11-14T08:55:20.639Z,67.92
2022-11-14T08:57:49.761Z,67.71
2022-11-14T09:00:17.181Z,67.53
2022-11-14T09:02:42.853Z,67.64
2022-11-14T09:05:11.614Z,67.29
2022-11-14T09:07:36.848Z,68.06
2022-11-14T09:10:06.653Z,67.93
2022-11-14T09:12:33.530Z,67.83
2022-11-14T09:14:59.631Z,67.47
2022-11-14T09:17:24.858Z,66.91
2022-11-14T09:19:51.460Z,66.58
2022-11-14T09:22:16.510Z,66.37
2022-11-14T09:24:41.996Z,67.12
2022-11-14T09:27:13.491Z,66.63
2022-11-14T09:29:38.393Z,67.29
2022-11-14T09:32:03.950Z,67.58
2022-11-14T09:34:29.683Z,66.44
2022-11-14T09:36:55.110Z,66.94
2022-11-14T09:39:20.795Z,66.55
2022-11-14T09:42:17.359Z,66.30
2022-11-14T09:45:03.472Z,66.21
2022-11-14T09:47:34.698Z,66.69
2022-11-14T09:50:13.830Z,66.68
2022-11-14T09:52:46.535Z,67.20
2022-11-14T09:55:17.795Z,66.60
2022-11-14T09:57:48.652Z,67.16
2022-11-14T10:00:24.188Z,66.34
2022-11-14T10:03:12.286Z,66.57
2022-11-14T10:06:07.434Z,66.90
2022-11-14T10:09:03.731Z,66.76
2022-11-14T10:11:42.282Z,66.51
2022-11-14T10:15:07.047Z,66.52
2022-11-14T10:18:26.556Z,65.94
2022-11-14T10:21:01.146Z,65.40
2022-11-14T10:23:46.742Z,65.42
2022-11-14T10:26:25.385Z,65.55
2022-11-14T10:29:15.137Z,64.94
2022-11-14T10:32:03.724Z,65.34
2022-11-14T10:34:45.887Z,64.63
2022-11-14T10:37:26.675Z,65.04
2022-11-14T10:39:57.461Z,64.77
2022-11-14T10:42:35.772Z,65.11
2022-11-14T10:45:10.432Z,64.63
2022-11-14T10:47:43.969Z,63.61
2022-11-14T10:50:24.495Z,64.30
2022-11-14T10:52:57.828Z,64.42
2022-11-14T10:55:49.749Z,63.73
2022-11-14T10:58:16.273Z,64.59
2022-11-14T11:00:41.634Z,64.67
2022-11-14T11:03:08.518Z,64.05
2022-11-14T11:05:51.390Z,65.08
2022-11-14T11:08:48.027Z,63.96
2022-11-14T11:11:35.644Z,63.74
2022-11-14T11:14:04.274Z,63.98
2022-11-14T11:16:33.179Z,62.54
2022-11-14T11:19:25.821Z,63.70
2022-11-14T11:21:56.492Z,62.63
2022-11-14T11:24:39.789Z,62.44
2022-11-14T11:27:26.186Z,62.94
2022-11-14T11:29:51.023Z,63.78
2022-11-14T11:32:29.830Z,64.25
2022-11-14T11:34:55.784Z,63.49
2022-11-14T11:37:32.438Z,64.04
2022-11-14T11:40:04.255Z,62.83
2022-11-14T11:43:31.764Z,63.08
2022-11-14T11:45:32.302Z,63.10
2022-11-14T11:48:06.605Z,63.74
2022-11-14T11:50:33.324Z,62.51
2022-11-14T11:53:20.558Z,63.78
2022-11-14T11:55:52.450Z,62.97
2022-11-14T11:58:29.059Z,63.29
2022-11-14T12:00:58.389Z,63.44
2022-11-14T12:03:27.225Z,63.03
2022-11-14T12:06:10.636Z,63.20
2022-11-14T12:09:03.703Z,63.14
2022-11-14T12:11:35.302Z,63.03
2022-11-14T12:14:48.141Z,61.88
2022-11-14T12:18:12.719Z,62.03
2022-11-14T12:21:06.732Z,62.71
2022-11-14T12:24:08.395Z,62.39
2022-11-14T12:27:09.203Z,63.22
2022-11-14T12:30:06.594Z,63.25
2022-11-14T12:32:41.500Z,63.56
2022-11-14T12:35:23.348Z,62.92
2022-11-14T12:37:56.074Z,62.89
2022-11-14T12:40:35.822Z,63.02
2022-11-14T12:43:06.640Z,61.90
2022-11-14T12:46:09.875Z,62.78
2022-11-14T12:48:42.111Z,63.08
2022-11-14T12:51:52.492Z,62.53
2022-11-14T12:54:49.612Z,62.95
2022-11-14T12:57:51.204Z,62.63
2022-11-14T13:00:20.367Z,62.58
2022-11-14T13:03:22.740Z,62.91
2022-11-14T13:06:05.960Z,63.75
2022-11-14T13:09:10.466Z,64.07
2022-11-14T13:11:56.686Z,63.71
2022-11-14T13:14:41.196Z,64.81
2022-11-14T13:17:41.826Z,64.60
2022-11-14T13:20:46.207Z,64.11
2022-11-14T13:23:59.138Z,65.06
2022-11-14T13:26:47.510Z,65.05
2022-11-14T13:30:02.956Z,65.60
2022-11-14T13:33:07.848Z,64.91
2022-11-14T13:36:04.894Z,65.22
2022-11-14T13:39:26.579Z,65.39
2022-11-14T13:42:19.653Z,64.68
2022-11-14T13:45:32.025Z,65.01
2022-11-14T13:48:46.264Z,64.88
2022-11-14T13:51:42.438Z,65.63
2022-11-14T13:54:17.982Z,65.58
2022-11-14T13:57:13.469Z,65.72
2022-11-14T14:00:07.353Z,66.13
2022-11-14T14:03:15.911Z,65.91
2022-11-14T14:06:09.563Z,66.71
2022-11-14T14:09:03.793Z,66.72
2022-11-14T14:11:51.164Z,66.21
2022-11-14T14:14:51.309Z,66.24
2022-11-14T14:17:30.635Z,66.47
2022-11-14T14:20:22.871Z,66.49
2022-11-14T14:23:06.739Z,66.65
2022-11-14T14:25:49.547Z,66.77
2022-11-14T14:28:33.107Z,66.81
2022-11-14T14:31:12.675Z,66.98
2022-11-14T14:33:45.378Z,67.16
2022-11-14T14:36:26.334Z,66.80
2022-11-14T14:38:53.932Z,67.13
2022-11-14T14:41:23.185Z,67.47
2022-11-14T14:43:58.289Z,67.49
2022-11-14T14:46:36.383Z,67.35
2022-11-14T14:49:07.253Z,67.18
2022-11-14T14:51:39.918Z,67.47
2022-11-14T14:54:08.029Z,67.74
2022-11-14T14:56:34.273Z,67.61
2022-11-14T14:58:59.492Z,67.93
2022-11-14T15:01:31.453Z,68.07
2022-11-14T15:04:07.367Z,68.31
2022-11-14T15:06:40.818Z,68.61
2022-11-14T15:09:16.889Z,69.82
2022-11-14T15:11:47.378Z,69.60
2022-11-14T15:14:20.846Z,69.49
2022-11-14T15:16:51.116Z,69.61
2022-11-14T15:19:22.993Z,69.68
2022-11-14T15:22:07.221Z,70.07
2022-11-14T15:24:34.711Z,69.94
2022-11-14T15:27:01.113Z,69.92
2022-11-14T15:29:33.094Z,70.14
2022-11-14T15:32:04.007Z,70.02
2022-11-14T15:34:33.262Z,69.80
2022-11-14T15:37:25.895Z,70.19
2022-11-14T15:39:51.599Z,69.59
2022-11-14T15:42:21.315Z,69.93
2022-11-14T15:44:47.224Z,69.96
2022-11-14T15:47:20.844Z,70.34
2022-11-14T15:50:02.971Z,70.24
2022-11-14T15:52:38.175Z,70.08
2022-11-14T15:55:06.718Z,69.88
2022-11-14T15:57:31.922Z,69.62
2022-11-14T15:59:57.355Z,69.81
2022-11-14T16:02:31.763Z,69.40
2022-11-14T16:04:59.505Z,70.44
2022-11-14T16:07:26.584Z,70.50
2022-11-14T16:09:56.052Z,70.33
2022-11-14T16:12:21.288Z,70.57
2022-11-14T16:14:47.625Z,70.46
2022-11-14T16:17:17.866Z,70.88
2022-11-14T16:19:43.246Z,70.88
2022-11-14T16:22:12.914Z,70.41
2022-11-14T16:24:38.109Z,70.94
2022-11-14T16:27:06.116Z,71.36
2022-11-14T16:29:32.099Z,71.43
2022-11-14T16:31:58.210Z,70.80
2022-11-14T16:34:27.390Z,71.68
2022-11-14T16:37:00.942Z,71.88
2022-11-14T16:39:27.671Z,71.77
2022-11-14T16:41:53.934Z,71.35
2022-11-14T16:44:21.902Z,71.63
2022-11-14T16:46:48.106Z,70.66
2022-11-14T16:49:17.876Z,70.93
2022-11-14T16:51:48.212Z,71.45
2022-11-14T16:54:17.108Z,70.95
2022-11-14T16:56:42.631Z,71.75
2022-11-14T16:59:08.369Z,72.08
2022-11-14T17:01:37.031Z,71.71
2022-11-14T17:04:03.116Z,71.10
2022-11-14T17:06:28.005Z,71.94
2022-11-14T17:08:56.974Z,71.35
2022-11-14T17:11:22.158Z,71.62
2022-11-14T17:13:47.687Z,71.92
2022-11-14T17:16:13.702Z,71.60
2022-11-14T17:18:42.156Z,71.32
2022-11-14T17:21:09.945Z,71.53
2022-11-14T17:23:36.560Z,71.36
2022-11-14T17:26:06.113Z,70.69
2022-11-14T17:28:31.327Z,71.01
2022-11-14T17:30:57.819Z,70.76
2022-11-14T17:33:23.657Z,70.89
2022-11-14T17:35:51.625Z,70.62
2022-11-14T17:38:17.843Z,70.43
2022-11-14T17:40:42.761Z,70.56
2022-11-14T17:43:09.065Z,71.02
2022-11-14T17:45:39.127Z,70.82
2022-11-14T17:48:09.359Z,70.77
2022-11-14T17:50:37.848Z,70.33
2022-11-14T17:53:06.870Z,71.50
2022-11-14T17:55:33.221Z,71.36
2022-11-14T17:57:59.635Z,70.65
2022-11-14T18:00:25.115Z,71.29
2022-11-14T18:02:50.542Z,71.28
2022-11-14T18:05:16.846Z,71.00
2022-11-14T18:07:42.435Z,71.02
2022-11-14T18:10:12.803Z,71.07
2022-11-14T18:12:38.963Z,71.15
2022-11-14T18:15:03.845Z,71.08
2022-11-14T18:17:31.881Z,70.84
2022-11-14T18:20:00.369Z,70.88
2022-11-14T18:22:27.840Z,71.02
2022-11-14T18:24:53.068Z,71.18
2022-11-14T18:27:23.012Z,72.16
2022-11-14T18:29:48.740Z,71.82
2022-11-14T18:32:14.334Z,71.35
2022-11-14T18:34:40.988Z,71.46
2022-11-14T18:37:08.446Z,71.77
2022-11-14T18:39:33.878Z,71.04
2022-11-14T18:42:04.097Z,71.17
2022-11-14T18:44:32.376Z,71.61
2022-11-14T18:46:57.970Z,71.41
2022-11-14T18:49:24.313Z,71.52
2022-11-14T18:51:49.731Z,71.21
2022-11-14T18:54:19.000Z,71.07
2022-11-14T18:56:45.661Z,71.21
2022-11-14T18:59:11.306Z,71.01
2022-11-14T19:01:39.561Z,71.52
2022-11-14T19:04:11.117Z,71.76
2022-11-14T19:06:39.726Z,72.57
2022-11-14T19:09:11.562Z,72.21
2022-11-14T19:11:53.012Z,71.75
2022-11-14T19:14:19.545Z,71.87
2022-11-14T19:16:47.489Z,72.67
2022-11-14T19:19:14.345Z,72.49
2022-11-14T19:21:40.569Z,72.69
2022-11-14T19:24:07.189Z,73.52
2022-11-14T19:26:33.743Z,73.21
2022-11-14T19:29:07.303Z,73.25
2022-11-14T19:31:35.001Z,74.11
2022-11-14T19:34:06.895Z,74.11
2022-11-14T19:36:58.218Z,74.06
2022-11-14T19:39:18.632Z,73.18
2022-11-14T19:41:43.843Z,73.33
2022-11-14T19:44:08.924Z,73.76
2022-11-14T19:46:36.916Z,74.06
2022-11-14T19:49:07.584Z,73.31
2022-11-14T19:51:34.744Z,73.15
2022-11-14T19:54:03.645Z,72.79
2022-11-14T19:56:29.993Z,72.86
2022-11-14T19:58:58.062Z,73.03
2022-11-14T20:01:28.448Z,72.97
2022-11-14T20:03:55.688Z,73.25
2022-11-14T20:06:27.753Z,72.49
2022-11-14T20:08:54.885Z,72.54
2022-11-14T20:11:22.356Z,72.27
2022-11-14T20:13:48.388Z,72.19
2022-11-14T20:16:16.539Z,72.30
2022-11-14T20:18:45.102Z,72.35
2022-11-14T20:21:16.825Z,71.95
2022-11-14T20:23:46.865Z,72.52
2022-11-14T20:26:14.921Z,71.50
2022-11-14T20:28:41.008Z,71.49
2022-11-14T20:31:14.712Z,71.40
2022-11-14T20:33:42.402Z,71.36
2022-11-14T20:36:13.591Z,71.44
2022-11-14T20:38:39.638Z,70.97
2022-11-14T20:41:10.323Z,71.38
2022-11-14T20:43:36.982Z,71.04
2022-11-14T20:46:06.705Z,71.07
2022-11-14T20:48:35.015Z,71.44
2022-11-14T20:51:08.195Z,71.80
2022-11-14T20:53:35.170Z,72.45
2022-11-14T20:56:03.341Z,72.09
2022-11-14T20:58:31.812Z,72.85
2022-11-14T21:00:58.338Z,71.88
2022-11-14T21:03:25.889Z,71.89
2022-11-14T21:05:51.116Z,71.52
2022-11-14T21:08:17.438Z,72.20
2022-11-14T21:10:49.313Z,71.64
2022-11-14T21:13:31.129Z,72.20
2022-11-14T21:16:04.099Z,71.88
2022-11-14T21:18:30.122Z,72.25
2022-11-14T21:21:06.140Z,71.58
2022-11-14T21:23:32.555Z,71.47
2022-11-14T21:26:08.583Z,72.19
2022-11-14T21:28:35.316Z,72.14
2022-11-14T21:31:06.660Z,71.57
2022-11-14T21:33:35.190Z,70.85
2022-11-14T21:36:11.365Z,70.59
2022-11-14T21:38:46.773Z,71.51
2022-11-14T21:41:15.795Z,70.77
2022-11-14T21:43:40.759Z,70.84
2022-11-14T21:46:13.971Z,70.95
2022-11-14T21:48:43.231Z,71.01
2022-11-14T21:51:15.279Z,70.70
2022-11-14T21:53:41.848Z,71.18
2022-11-14T21:56:15.357Z,71.17
2022-11-14T21:58:41.317Z,71.50
2022-11-14T22:01:16.591Z,71.65
2022-11-14T22:04:00.074Z,71.56
2022-11-14T22:06:29.513Z,72.25
2022-11-14T22:08:58.550Z,71.86
2022-11-14T22:11:24.063Z,71.59
2022-11-14T22:13:49.509Z,71.46
2022-11-14T22:16:19.884Z,72.24
2022-11-14T22:18:45.072Z,72.07
2022-11-14T22:21:10.175Z,71.93
2022-11-14T22:23:36.510Z,72.27
2022-11-14T22:26:03.975Z,71.79
2022-11-14T22:28:31.218Z,71.71
2022-11-14T22:31:09.856Z,72.20
2022-11-14T22:33:45.720Z,71.67
2022-11-14T22:36:16.865Z,71.25
2022-11-14T22:38:44.079Z,71.44
2022-11-14T22:41:13.190Z,71.56
2022-11-14T22:43:39.508Z,71.90
2022-11-14T22:46:06.332Z,71.18
2022-11-14T22:48:35.159Z,70.85
2022-11-14T22:51:08.679Z,71.43
2022-11-14T22:53:36.508Z,71.29
2022-11-14T22:56:04.668Z,71.13
2022-11-14T22:58:33.689Z,71.43
2022-11-14T23:00:58.598Z,71.17
2022-11-14T23:03:25.646Z,70.58
2022-11-14T23:05:52.181Z,70.79
2022-11-14T23:08:23.693Z,71.25
2022-11-14T23:10:51.674Z,71.24
2022-11-14T23:13:18.216Z,70.35
2022-11-14T23:15:49.422Z,70.24
2022-11-14T23:18:15.668Z,70.50
2022-11-14T23:20:40.837Z,70.19
2022-11-14T23:23:07.607Z,69.80
2022-11-14T23:25:39.589Z,70.88
2022-11-14T23:28:06.378Z,70.39
2022-11-14T23:30:31.578Z,69.73
2022-11-14T23:32:57.714Z,69.62
2022-11-14T23:35:22.683Z,69.71
2022-11-14T23:37:48.044Z,69.91
2022-11-14T23:40:15.225Z,70.45
2022-11-14T23:42:42.841Z,70.67
2022-11-14T23:45:09.369Z,70.24
2022-11-14T23:47:35.335Z,70.36
2022-11-14T23:50:00.474Z,70.66
2022-11-14T23:52:28.048Z,70.63
2022-11-14T23:54:53.770Z,70.47
2022-11-14T23:57:18.961Z,69.94
2022-11-14T23:59:47.194Z,70.22
